Time;durP1;ratioP1;P1;durP2;ratioP2;P2;SDS_P1;SDS_P2;PMS_P1;PMS_P2;Temp;Humidity;BMP_temperature;BMP_pressure;BME280_temperature;BME280_humidity;BME280_pressure;Samples;Min_cycle;Max_cycle;Signal;HPM_P1;HPM_P2
2021/03/26 00:00:56;;;;;;;78.60;39.20;;;8.80;99.90;;;;;;5092439;28;20204;-64
2021/03/26 00:03:26;;;;;;;91.13;45.67;;;8.80;99.90;;;;;;5092656;28;20208;-65
2021/03/26 00:05:55;;;;;;;104.30;52.83;;;8.80;99.90;;;;;;5092284;28;20208;-63
2021/03/26 00:08:22;;;;;;;130.60;62.87;;;8.70;99.90;;;;;;5092238;28;20211;-63
2021/03/26 00:10:48;;;;;;;141.03;67.60;;;8.80;99.90;;;;;;5092209;28;20204;-63
2021/03/26 00:13:15;;;;;;;166.10;76.90;;;8.80;99.90;;;;;;5092206;28;20707;-62
2021/03/26 00:15:41;;;;;;;166.47;79.07;;;8.70;99.90;;;;;;5091891;28;20684;-63
2021/03/26 00:18:07;;;;;;;179.20;86.10;;;8.80;99.90;;;;;;5091879;28;20212;-64
2021/03/26 00:20:34;;;;;;;174.00;86.33;;;8.80;99.90;;;;;;5092069;28;20235;-63
2021/03/26 00:23:02;;;;;;;127.23;64.03;;;8.90;99.90;;;;;;5092151;28;20212;-64
2021/03/26 00:25:28;;;;;;;119.63;58.37;;;8.70;99.90;;;;;;5092078;28;20719;-62
2021/03/26 00:27:55;;;;;;;99.10;52.63;;;8.80;99.90;;;;;;5091753;28;20200;-63
2021/03/26 00:30:22;;;;;;;106.93;54.33;;;8.80;99.90;;;;;;5092393;28;20228;-62
2021/03/26 00:32:49;;;;;;;108.07;56.13;;;8.80;99.90;;;;;;5092271;28;20207;-63
2021/03/26 00:35:18;;;;;;;103.47;57.50;;;8.90;99.90;;;;;;5091689;28;20200;-64
2021/03/26 00:37:44;;;;;;;108.03;58.57;;;9.00;99.90;;;;;;5092012;28;20216;-63
2021/03/26 00:40:14;;;;;;;106.33;57.40;;;9.00;99.90;;;;;;5091412;28;20228;-64
2021/03/26 00:42:40;;;;;;;99.57;57.37;;;9.10;99.90;;;;;;5091677;28;20204;-63
2021/03/26 00:45:10;;;;;;;111.47;63.30;;;9.10;99.90;;;;;;5091938;28;20668;-64
2021/03/26 00:47:36;;;;;;;112.67;64.53;;;9.10;99.90;;;;;;5092026;28;20205;-63
2021/03/26 00:50:05;;;;;;;112.47;62.70;;;9.20;99.90;;;;;;5091952;28;20236;-64
2021/03/26 00:52:31;;;;;;;102.20;56.53;;;9.20;99.90;;;;;;5091856;28;20211;-63
2021/03/26 00:54:57;;;;;;;90.13;53.73;;;9.20;99.90;;;;;;5092053;28;20490;-63
2021/03/26 00:57:24;;;;;;;96.47;50.60;;;9.10;99.90;;;;;;5091102;28;20211;-63
2021/03/26 00:59:50;;;;;;;81.23;47.17;;;9.10;99.90;;;;;;5090754;28;20251;-64
2021/03/26 01:02:16;;;;;;;85.33;47.40;;;9.10;99.90;;;;;;5091148;28;20212;-64
2021/03/26 01:04:42;;;;;;;76.67;45.93;;;9.20;99.90;;;;;;5090915;28;20200;-64
2021/03/26 01:07:09;;;;;;;78.27;44.07;;;9.10;99.90;;;;;;5091136;28;20205;-64
2021/03/26 01:09:35;;;;;;;78.63;43.33;;;9.10;99.90;;;;;;5091048;28;20220;-63
2021/03/26 01:12:01;;;;;;;70.83;39.87;;;9.00;99.90;;;;;;5091064;28;20238;-64
2021/03/26 01:14:28;;;;;;;68.50;35.93;;;8.90;99.90;;;;;;5091084;28;20215;-64
2021/03/26 01:16:54;;;;;;;63.93;35.07;;;8.90;99.90;;;;;;5091390;28;20205;-65
2021/03/26 01:19:23;;;;;;;55.77;32.50;;;8.80;99.90;;;;;;5090734;28;20228;-64
2021/03/26 01:21:49;;;;;;;51.70;30.07;;;8.80;99.90;;;;;;5091080;28;20204;-64
2021/03/26 01:24:17;;;;;;;51.27;28.07;;;8.70;99.90;;;;;;5090765;28;20212;-64
2021/03/26 01:26:44;;;;;;;43.10;26.17;;;8.70;99.90;;;;;;5091188;28;20269;-63
2021/03/26 01:29:11;;;;;;;42.03;24.90;;;8.70;99.90;;;;;;5090853;28;20220;-63
2021/03/26 01:31:39;;;;;;;46.30;24.50;;;8.60;99.90;;;;;;5090923;28;20204;-63
2021/03/26 01:34:06;;;;;;;41.33;24.80;;;8.30;99.90;;;;;;5090993;28;20235;-64
2021/03/26 01:36:33;;;;;;;39.63;22.93;;;8.20;99.90;;;;;;5091118;28;20218;-63
2021/03/26 01:39:00;;;;;;;33.63;20.57;;;8.10;99.90;;;;;;5090574;28;20231;-63
2021/03/26 01:41:36;;;;;;;30.27;17.70;;;8.10;99.90;;;;;;5091188;28;20277;-64
2021/03/26 01:44:03;;;;;;;30.63;17.20;;;8.10;99.90;;;;;;5090944;28;20557;-64
2021/03/26 01:46:29;;;;;;;24.07;14.43;;;8.00;99.90;;;;;;5091363;28;20200;-63
2021/03/26 01:48:59;;;;;;;18.87;13.13;;;7.90;99.90;;;;;;5091512;28;20239;-63
2021/03/26 01:51:27;;;;;;;20.90;13.60;;;7.80;99.90;;;;;;5091656;28;20216;-62
2021/03/26 01:53:54;;;;;;;26.23;13.40;;;7.80;99.90;;;;;;5090869;28;20680;-62
2021/03/26 01:56:21;;;;;;;22.60;13.37;;;7.70;99.90;;;;;;5091545;28;20673;-63
2021/03/26 01:58:47;;;;;;;20.00;13.17;;;7.80;99.90;;;;;;5091196;28;20619;-63
2021/03/26 02:01:17;;;;;;;19.53;12.57;;;7.80;99.90;;;;;;5091298;28;20705;-63
2021/03/26 02:03:46;;;;;;;18.77;12.70;;;7.90;99.90;;;;;;5091059;28;20204;-62
2021/03/26 02:06:17;;;;;;;20.13;11.93;;;7.90;99.90;;;;;;5090719;28;20212;-62
2021/03/26 02:08:44;;;;;;;16.97;10.83;;;7.90;99.90;;;;;;5090902;28;20595;-63
2021/03/26 02:11:17;;;;;;;18.40;10.93;;;7.90;99.90;;;;;;5092824;28;20616;-63
2021/03/26 02:13:44;;;;;;;16.73;10.43;;;7.90;99.90;;;;;;5094596;28;20664;-63
2021/03/26 02:16:13;;;;;;;19.40;11.30;;;7.90;99.90;;;;;;5094496;28;20257;-63
2021/03/26 02:18:41;;;;;;;17.27;10.90;;;7.80;99.90;;;;;;5094719;28;20235;-62
2021/03/26 02:21:11;;;;;;;15.77;10.67;;;7.80;99.90;;;;;;5094185;28;20672;-63
2021/03/26 02:23:38;;;;;;;15.93;9.73;;;7.80;99.90;;;;;;5093952;28;20208;-63
2021/03/26 02:26:11;;;;;;;14.17;9.43;;;7.70;99.90;;;;;;5094113;28;20208;-62
2021/03/26 02:28:37;;;;;;;16.93;9.70;;;7.60;99.90;;;;;;5093889;28;20318;-63
2021/03/26 02:31:04;;;;;;;12.20;9.27;;;7.50;99.90;;;;;;5093931;28;20204;-64
2021/03/26 02:33:30;;;;;;;12.70;8.53;;;7.40;99.90;;;;;;5094077;28;20204;-61
2021/03/26 02:36:34;;;;;;;15.03;7.87;;;7.40;99.90;;;;;;5094310;28;20201;-63
2021/03/26 02:39:04;;;;;;;12.60;8.80;;;7.40;99.90;;;;;;5093751;28;20224;-63
2021/03/26 02:41:35;;;;;;;10.63;7.80;;;7.40;99.90;;;;;;5093911;28;20211;-62
2021/03/26 02:44:08;;;;;;;11.10;7.53;;;7.40;99.90;;;;;;5094331;28;20208;-62
2021/03/26 02:46:41;;;;;;;12.13;7.87;;;7.40;99.90;;;;;;5094140;28;20253;-63
2021/03/26 02:49:15;;;;;;;14.00;7.83;;;7.50;99.90;;;;;;5093648;28;20727;-64
2021/03/26 02:51:46;;;;;;;15.07;8.90;;;7.70;99.90;;;;;;5094005;28;20204;-63
2021/03/26 02:54:20;;;;;;;12.83;8.57;;;7.90;99.90;;;;;;5093992;28;20208;-63
2021/03/26 02:56:51;;;;;;;12.83;9.00;;;8.10;99.90;;;;;;5093807;28;20211;-63
2021/03/26 02:59:21;;;;;;;16.80;9.33;;;8.20;99.90;;;;;;5093679;28;20236;-63
2021/03/26 03:01:50;;;;;;;11.97;8.27;;;8.20;99.90;;;;;;5094036;28;20257;-63
2021/03/26 03:04:19;;;;;;;12.57;8.37;;;8.30;99.90;;;;;;5093616;28;20204;-63
2021/03/26 03:06:51;;;;;;;11.23;8.00;;;8.20;99.90;;;;;;5093881;28;20212;-63
2021/03/26 03:09:20;;;;;;;12.77;7.97;;;8.20;99.90;;;;;;5093380;28;20587;-63
2021/03/26 03:11:50;;;;;;;12.83;8.50;;;8.10;99.90;;;;;;5093522;28;20219;-63
2021/03/26 03:14:21;;;;;;;13.20;8.90;;;7.90;99.90;;;;;;5093719;28;20211;-63
2021/03/26 03:16:57;;;;;;;11.17;8.33;;;7.90;99.90;;;;;;5094271;28;20264;-63
2021/03/26 03:19:35;;;;;;;14.03;8.00;;;7.70;99.90;;;;;;5093708;28;20748;-63
2021/03/26 03:22:05;;;;;;;12.77;9.07;;;7.50;99.90;;;;;;5093077;28;20672;-63
2021/03/26 03:24:36;;;;;;;11.73;8.53;;;7.40;99.90;;;;;;5093261;28;20211;-63
2021/03/26 03:27:16;;;;;;;13.57;8.73;;;7.40;99.90;;;;;;5093609;28;20204;-63
2021/03/26 03:29:47;;;;;;;10.37;7.67;;;7.30;99.90;;;;;;5093231;28;20231;-63
2021/03/26 03:32:19;;;;;;;13.63;8.73;;;7.20;99.90;;;;;;5094139;28;20208;-64
2021/03/26 03:34:51;;;;;;;12.83;9.47;;;7.20;99.90;;;;;;5093609;28;20235;-63
2021/03/26 03:37:25;;;;;;;15.17;8.83;;;7.20;99.90;;;;;;5093411;28;20211;-63
2021/03/26 03:40:00;;;;;;;13.40;9.20;;;7.20;99.90;;;;;;5092644;28;20220;-63
2021/03/26 03:42:32;;;;;;;13.23;8.50;;;7.10;99.90;;;;;;5093132;28;20691;-63
2021/03/26 03:45:06;;;;;;;14.07;9.20;;;7.00;99.90;;;;;;5092838;28;20257;-63
2021/03/26 03:47:38;;;;;;;15.93;10.27;;;6.90;99.90;;;;;;5092902;28;20231;-63
2021/03/26 03:50:10;;;;;;;13.57;9.63;;;6.90;99.90;;;;;;5092697;28;20232;-64
2021/03/26 03:52:42;;;;;;;14.80;8.87;;;6.80;99.90;;;;;;5092769;28;20211;-63
2021/03/26 03:55:15;;;;;;;14.50;9.13;;;6.60;99.90;;;;;;5092774;28;20687;-64
2021/03/26 03:57:45;;;;;;;13.47;8.97;;;6.50;99.90;;;;;;5092647;28;20215;-64
2021/03/26 04:00:17;;;;;;;12.73;9.10;;;6.40;99.90;;;;;;5092619;28;20224;-63
2021/03/26 04:02:49;;;;;;;14.73;9.57;;;6.40;99.90;;;;;;5092790;28;20205;-64
2021/03/26 04:05:22;;;;;;;14.77;9.57;;;6.40;99.90;;;;;;5092526;28;20212;-63
2021/03/26 04:07:54;;;;;;;13.60;9.27;;;6.40;99.90;;;;;;5092514;28;20200;-63
2021/03/26 04:10:22;;;;;;;13.10;9.43;;;6.40;99.90;;;;;;5092431;28;20726;-64
2021/03/26 04:12:52;;;;;;;10.67;8.67;;;6.30;99.90;;;;;;5092720;28;20204;-64
2021/03/26 04:15:22;;;;;;;12.93;9.13;;;6.20;99.90;;;;;;5093127;28;20258;-63
2021/03/26 04:17:56;;;;;;;13.80;9.50;;;6.20;99.90;;;;;;5092697;28;20215;-63
2021/03/26 04:20:26;;;;;;;11.07;8.60;;;6.10;99.90;;;;;;5092283;28;20277;-63
2021/03/26 04:22:57;;;;;;;16.60;9.17;;;6.10;99.90;;;;;;5093018;28;20215;-64
2021/03/26 04:25:27;;;;;;;12.83;8.23;;;6.00;99.90;;;;;;5092368;28;20263;-63
2021/03/26 04:28:01;;;;;;;14.00;8.63;;;6.10;99.90;;;;;;5092950;28;20215;-63
2021/03/26 04:30:30;;;;;;;10.63;8.17;;;6.20;99.90;;;;;;5092661;28;20220;-63
2021/03/26 04:32:57;;;;;;;14.10;9.63;;;6.20;99.90;;;;;;5093109;28;20212;-63
2021/03/26 04:35:25;;;;;;;12.87;8.67;;;6.20;99.90;;;;;;5093982;28;20623;-64
2021/03/26 04:38:01;;;;;;;11.23;8.73;;;6.10;99.90;;;;;;5093750;28;20204;-64
2021/03/26 04:40:33;;;;;;;14.03;9.00;;;6.10;99.90;;;;;;5093316;28;20228;-64
2021/03/26 04:43:05;;;;;;;12.20;9.27;;;6.10;99.90;;;;;;5092777;28;20664;-63
2021/03/26 04:45:40;;;;;;;12.07;8.77;;;6.20;99.90;;;;;;5092521;28;20253;-64
2021/03/26 04:48:15;;;;;;;17.67;9.90;;;6.20;99.90;;;;;;5092419;28;20211;-65
2021/03/26 04:50:44;;;;;;;17.03;10.30;;;6.10;99.90;;;;;;5092327;28;20199;-63
2021/03/26 04:53:15;;;;;;;17.60;11.10;;;6.10;99.90;;;;;;5092059;28;20226;-63
2021/03/26 04:55:48;;;;;;;16.57;10.27;;;6.00;99.90;;;;;;5092603;28;20233;-63
2021/03/26 04:58:19;;;;;;;13.37;9.93;;;6.10;99.90;;;;;;5092540;28;20212;-63
2021/03/26 05:00:48;;;;;;;12.93;9.40;;;6.10;99.90;;;;;;5092528;28;20243;-63
2021/03/26 05:03:20;;;;;;;12.07;8.70;;;6.00;99.90;;;;;;5091931;28;20575;-63
2021/03/26 05:05:49;;;;;;;15.50;9.20;;;5.90;99.90;;;;;;5091596;28;20207;-63
2021/03/26 05:08:17;;;;;;;12.67;9.13;;;5.80;99.90;;;;;;5091497;28;20208;-63
2021/03/26 05:10:47;;;;;;;12.27;9.33;;;5.70;99.90;;;;;;5091325;28;20260;-63
2021/03/26 05:13:18;;;;;;;16.80;9.90;;;5.70;99.90;;;;;;5091190;28;20204;-63
2021/03/26 05:15:48;;;;;;;16.00;9.53;;;5.80;99.90;;;;;;5090970;28;20695;-63
2021/03/26 05:18:21;;;;;;;14.00;9.63;;;5.80;99.90;;;;;;5090736;28;20680;-63
2021/03/26 05:20:56;;;;;;;17.30;11.83;;;5.90;99.90;;;;;;5091433;28;20231;-63
2021/03/26 05:23:27;;;;;;;14.20;9.93;;;5.80;99.90;;;;;;5091695;28;20568;-63
2021/03/26 05:25:58;;;;;;;14.00;10.20;;;5.90;99.90;;;;;;5091595;28;20215;-63
2021/03/26 05:28:26;;;;;;;15.23;10.53;;;5.80;99.90;;;;;;5091198;28;20268;-63
2021/03/26 05:30:54;;;;;;;14.67;9.80;;;5.90;99.90;;;;;;5091440;28;20196;-63
2021/03/26 05:33:26;;;;;;;16.50;9.27;;;5.90;99.90;;;;;;5091262;28;20204;-63
2021/03/26 05:35:59;;;;;;;17.53;11.20;;;5.90;99.90;;;;;;5091398;28;20213;-63
2021/03/26 05:38:31;;;;;;;13.50;9.90;;;5.90;99.90;;;;;;5091154;28;20211;-63
2021/03/26 05:41:27;;;;;;;17.80;10.70;;;5.90;99.90;;;;;;5091283;28;20235;-63
2021/03/26 05:44:14;;;;;;;14.00;10.10;;;6.10;99.90;;;;;;5091152;28;20216;-63
2021/03/26 05:46:59;;;;;;;16.93;10.77;;;6.20;99.90;;;;;;5095386;28;20207;-63
2021/03/26 05:49:36;;;;;;;16.23;11.13;;;6.20;99.90;;;;;;5095427;28;20319;-64
2021/03/26 05:52:27;;;;;;;13.10;10.47;;;6.30;99.90;;;;;;5095161;28;20235;-63
2021/03/26 05:55:06;;;;;;;44.43;31.67;;;6.50;99.90;;;;;;5094685;28;20683;-64
2021/03/26 05:57:42;;;;;;;19.33;12.67;;;6.60;99.90;;;;;;5094869;28;20238;-63
2021/03/26 06:00:37;;;;;;;17.20;12.53;;;6.80;99.90;;;;;;5094072;28;20664;-64
2021/03/26 06:03:46;;;;;;;17.03;11.03;;;6.80;99.90;;;;;;5094153;28;20236;-63
2021/03/26 06:06:43;;;;;;;26.70;10.93;;;6.80;99.90;;;;;;5069096;28;20782;-64
2021/03/26 06:09:39;;;;;;;14.37;10.07;;;6.90;99.90;;;;;;5094189;28;20235;-64
2021/03/26 06:12:33;;;;;;;17.53;10.03;;;6.90;99.90;;;;;;5094181;28;20208;-64
2021/03/26 06:15:38;;;;;;;12.10;9.03;;;7.20;99.90;;;;;;5094309;28;20255;-64
2021/03/26 06:18:31;;;;;;;12.70;9.70;;;8.00;99.90;;;;;;5094209;28;20207;-64
2021/03/26 06:21:25;;;;;;;13.13;9.97;;;9.50;99.90;;;;;;5094041;28;20722;-64
2021/03/26 06:24:18;;;;;;;12.83;9.73;;;10.80;99.90;;;;;;5093907;28;20204;-64
2021/03/26 06:26:57;;;;;;;18.93;8.87;;;12.10;99.80;;;;;;5094614;28;20219;-65
2021/03/26 06:29:34;;;;;;;15.60;9.93;;;13.30;97.30;;;;;;5094063;28;20254;-65
2021/03/26 06:32:44;;;;;;;16.00;9.73;;;14.20;95.60;;;;;;5094105;28;20210;-65
2021/03/26 06:35:47;;;;;;;13.60;9.13;;;15.20;93.10;;;;;;5094032;28;20207;-65
2021/03/26 06:38:43;;;;;;;12.87;8.77;;;16.20;91.50;;;;;;5093616;28;20207;-65
2021/03/26 06:41:17;;;;;;;15.13;9.00;;;17.00;90.00;;;;;;5093486;28;20221;-65
2021/03/26 06:44:16;;;;;;;15.77;8.73;;;17.90;86.70;;;;;;5093944;28;20589;-65
2021/03/26 06:46:53;;;;;;;15.53;8.57;;;18.90;83.20;;;;;;5093918;28;20219;-65
2021/03/26 06:49:31;;;;;;;13.07;8.77;;;19.70;78.90;;;;;;5093438;28;20232;-65
2021/03/26 06:52:20;;;;;;;12.77;9.00;;;20.40;75.60;;;;;;5094529;28;20204;-65
2021/03/26 06:55:21;;;;;;;12.65;8.05;;;20.80;73.10;;;;;;5093789;28;20212;-65
2021/03/26 06:58:05;;;;;;;11.93;8.25;;;21.20;71.20;;;;;;5093224;28;20208;-65
2021/03/26 07:00:56;;;;;;;17.13;8.73;;;21.40;69.70;;;;;;5093259;28;20236;-65
2021/03/26 07:03:51;;;;;;;12.50;8.63;;;21.10;69.80;;;;;;5093352;28;20668;-65
2021/03/26 07:06:45;;;;;;;15.85;9.32;;;20.60;70.10;;;;;;5050293;28;20245;-65
2021/03/26 07:09:23;;;;;;;16.33;9.48;;;19.60;73.00;;;;;;5093393;28;20235;-65
2021/03/26 07:12:04;;;;;;;11.93;8.53;;;19.20;73.30;;;;;;5092978;28;20206;-65
2021/03/26 07:14:41;;;;;;;12.77;9.25;;;19.00;74.90;;;;;;5092690;28;20205;-65
2021/03/26 07:17:37;;;;;;;11.85;8.13;;;19.60;73.90;;;;;;5092787;28;20200;-65
2021/03/26 07:20:32;;;;;;;13.40;8.70;;;20.00;70.90;;;;;;5092702;28;20680;-66
2021/03/26 07:23:29;;;;;;;15.40;8.30;;;19.50;71.70;;;;;;5003028;28;20220;-65
2021/03/26 07:26:11;;;;;;;15.90;8.53;;;19.20;73.20;;;;;;5093122;28;20204;-65
2021/03/26 07:28:48;;;;;;;15.35;9.15;;;19.70;72.10;;;;;;5092746;28;20220;-65
2021/03/26 07:31:23;;;;;;;19.40;9.25;;;20.50;69.90;;;;;;5092516;28;20724;-64
2021/03/26 07:33:56;;;;;;;17.63;9.35;;;20.60;70.00;;;;;;5092034;28;20694;-64
2021/03/26 07:36:36;;;;;;;20.65;9.18;;;21.20;67.50;;;;;;5092246;28;20253;-66
2021/03/26 07:39:37;;;;;;;20.70;9.90;;;21.90;66.50;;;;;;5091966;28;20228;-59
2021/03/26 07:42:35;;;;;;;15.95;9.77;;;22.60;64.30;;;;;;5092582;28;20206;-63
2021/03/26 07:45:37;;;;;;;15.40;10.32;;;22.90;62.40;;;;;;5092056;28;20229;-64
2021/03/26 07:48:39;;;;;;;13.60;9.45;;;23.00;61.40;;;;;;5092574;28;20207;-62
2021/03/26 07:51:14;;;;;;;12.52;9.27;;;21.90;62.70;;;;;;4990878;28;20207;-64
2021/03/26 07:53:59;;;;;;;12.02;9.35;;;21.70;63.90;;;;;;5078982;28;20208;-62
2021/03/26 07:56:42;;;;;;;13.65;9.45;;;22.10;62.60;;;;;;5088490;28;20219;-63
2021/03/26 07:59:29;;;;;;;12.55;8.88;;;22.60;62.00;;;;;;5092201;28;20235;-63
2021/03/26 08:02:04;;;;;;;13.20;8.88;;;22.70;59.70;;;;;;5092205;28;20211;-64
2021/03/26 08:04:39;;;;;;;13.23;9.35;;;21.70;61.90;;;;;;5091856;28;20298;-65
2021/03/26 08:07:34;;;;;;;10.43;8.48;;;20.70;63.80;;;;;;5091946;28;20208;-64
2021/03/26 08:10:14;;;;;;;13.55;9.10;;;19.60;65.20;;;;;;5091715;28;20588;-63
2021/03/26 08:12:56;;;;;;;14.20;10.20;;;18.80;67.40;;;;;;5091781;28;20208;-65
2021/03/26 08:15:41;;;;;;;17.47;9.73;;;18.00;69.70;;;;;;5089748;28;20207;-65
2021/03/26 08:18:21;;;;;;;15.47;9.90;;;17.50;71.40;;;;;;5092079;28;20211;-65
2021/03/26 08:21:06;;;;;;;14.00;9.03;;;16.90;73.70;;;;;;5091715;28;20220;-64
2021/03/26 08:23:42;;;;;;;14.97;9.43;;;16.60;74.60;;;;;;5091893;28;20204;-65
2021/03/26 08:26:21;;;;;;;13.20;9.47;;;16.40;75.30;;;;;;5092188;28;20706;-65
2021/03/26 08:28:57;;;;;;;18.47;10.67;;;16.30;75.90;;;;;;5091468;28;20232;-65
2021/03/26 08:31:44;;;;;;;17.50;10.77;;;16.20;76.20;;;;;;5090745;28;20200;-65
2021/03/26 08:34:35;;;;;;;13.00;9.10;;;16.30;76.80;;;;;;5091364;28;20269;-65
2021/03/26 08:37:11;;;;;;;14.87;8.93;;;16.30;76.70;;;;;;5082486;28;20299;-65
2021/03/26 08:39:43;;;;;;;16.27;10.57;;;16.40;76.70;;;;;;5090565;28;20681;-65
2021/03/26 08:42:23;;;;;;;15.40;9.37;;;16.30;76.70;;;;;;5091399;28;20211;-65
2021/03/26 08:44:55;;;;;;;14.03;8.50;;;16.20;77.00;;;;;;5091045;28;20618;-64
2021/03/26 08:47:33;;;;;;;16.40;8.87;;;16.10;77.40;;;;;;5091177;28;20232;-65
2021/03/26 08:50:16;;;;;;;11.60;8.50;;;16.00;78.20;;;;;;5103234;22;20231;-61
2021/03/26 08:53:13;;;;;;;11.00;8.17;;;15.80;79.10;;;;;;5091286;28;20264;-61
2021/03/26 08:55:47;;;;;;;13.63;8.57;;;15.60;80.10;;;;;;5090833;28;20233;-61
2021/03/26 08:58:33;;;;;;;14.37;8.93;;;15.40;80.50;;;;;;5091015;28;20261;-63
2021/03/26 09:01:22;;;;;;;13.80;8.77;;;15.30;81.30;;;;;;5070768;28;20649;-63
2021/03/26 09:04:04;;;;;;;11.67;8.30;;;15.30;81.50;;;;;;5069653;28;20208;-62
2021/03/26 09:06:48;;;;;;;10.07;8.03;;;15.20;81.60;;;;;;5070729;28;20217;-63
2021/03/26 09:09:43;;;;;;;12.67;7.97;;;15.40;81.80;;;;;;5070472;28;20290;-61
2021/03/26 09:12:44;;;;;;;11.87;7.90;;;15.50;80.80;;;;;;5055168;28;20638;-63
2021/03/26 09:15:38;;;;;;;11.63;8.13;;;15.70;80.70;;;;;;5063037;28;20265;-63
2021/03/26 09:18:17;;;;;;;13.53;8.80;;;15.90;81.00;;;;;;5070559;28;20201;-62
2021/03/26 09:20:55;;;;;;;9.93;7.23;;;16.10;79.90;;;;;;5073737;28;20491;-63
2021/03/26 09:24:00;;;;;;;12.57;7.90;;;16.10;80.00;;;;;;5074584;28;20212;-62
2021/03/26 09:26:38;;;;;;;10.90;7.50;;;16.20;80.00;;;;;;5061381;28;20209;-61
2021/03/26 09:29:10;;;;;;;9.60;7.73;;;16.40;79.30;;;;;;5074183;28;20234;-62
2021/03/26 09:31:43;;;;;;;13.10;8.40;;;16.50;79.20;;;;;;5074490;28;20212;-62
2021/03/26 09:34:23;;;;;;;10.43;7.90;;;16.60;79.00;;;;;;5074126;28;20289;-61
2021/03/26 09:37:14;;;;;;;14.60;8.10;;;16.60;78.60;;;;;;5074482;28;20212;-63
2021/03/26 09:39:43;;;;;;;13.67;7.97;;;16.60;77.70;;;;;;5074548;28;20592;-60
2021/03/26 09:42:39;;;;;;;11.50;7.93;;;16.70;77.50;;;;;;5074263;28;20205;-60
2021/03/26 09:45:11;;;;;;;11.77;7.97;;;16.90;77.70;;;;;;5073862;28;20684;-61
2021/03/26 09:47:44;;;;;;;12.57;8.20;;;16.90;77.40;;;;;;5074055;28;20209;-60
2021/03/26 09:50:31;;;;;;;12.57;8.80;;;17.00;76.70;;;;;;5074117;28;20592;-60
2021/03/26 09:52:58;;;;;;;13.97;7.77;;;16.90;77.70;;;;;;5074324;28;20201;-60
2021/03/26 09:55:28;;;;;;;13.00;8.13;;;16.90;78.60;;;;;;5074526;28;20239;-59
2021/03/26 09:58:02;;;;;;;12.73;7.70;;;16.70;79.50;;;;;;5074163;28;20216;-61
2021/03/26 10:00:48;;;;;;;13.67;7.97;;;16.80;78.90;;;;;;5074053;28;20229;-59
2021/03/26 10:03:34;;;;;;;11.63;7.93;;;16.90;77.80;;;;;;5073869;28;20212;-59
2021/03/26 10:06:08;;;;;;;15.97;8.50;;;17.00;77.80;;;;;;5073887;28;20209;-59
2021/03/26 10:11:27;;;;;;;13.17;7.87;;;17.00;77.70;;;;;;5073612;28;20246;-60
2021/03/26 10:13:57;;;;;;;17.47;8.03;;;17.20;77.50;;;;;;5073694;28;20209;-59
2021/03/26 10:16:36;;;;;;;13.87;8.03;;;17.50;76.50;;;;;;5073713;28;20672;-60
2021/03/26 10:19:07;;;;;;;16.67;8.43;;;17.60;75.40;;;;;;5073364;28;20233;-59
2021/03/26 10:21:37;;;;;;;16.67;9.00;;;17.80;74.80;;;;;;5073639;28;20229;-60
2021/03/26 10:24:21;;;;;;;17.63;8.73;;;17.90;74.50;;;;;;5073391;28;20213;-59
2021/03/26 10:26:51;;;;;;;10.83;8.10;;;18.00;73.20;;;;;;5072647;28;20580;-60
2021/03/26 10:29:28;;;;;;;14.63;8.23;;;18.10;73.30;;;;;;5073571;28;20232;-60
2021/03/26 10:32:04;;;;;;;14.83;8.60;;;18.20;72.60;;;;;;5072065;28;20215;-61
2021/03/26 10:34:33;;;;;;;11.83;7.90;;;18.20;72.70;;;;;;5073152;28;20711;-60
2021/03/26 10:37:18;;;;;;;14.73;8.33;;;18.20;72.20;;;;;;5073492;28;20588;-60
2021/03/26 10:39:51;;;;;;;11.43;8.00;;;18.20;72.50;;;;;;5073060;28;20236;-60
2021/03/26 10:42:42;;;;;;;10.23;7.20;;;18.20;72.60;;;;;;5073188;28;20232;-59
2021/03/26 10:45:43;;;;;;;13.40;8.00;;;18.40;71.60;;;;;;5073164;28;20205;-61
2021/03/26 10:48:13;;;;;;;12.33;7.23;;;18.60;69.40;;;;;;5070836;28;20216;-60
2021/03/26 10:51:09;;;;;;;12.23;7.10;;;18.90;68.90;;;;;;5072722;28;20240;-58
2021/03/26 10:53:41;;;;;;;10.82;6.93;;;19.10;67.40;;;;;;5072843;28;20208;-60
2021/03/26 10:56:13;;;;;;;13.10;6.70;;;19.10;66.50;;;;;;5073209;28;20205;-61
2021/03/26 10:58:44;;;;;;;12.50;7.37;;;19.20;66.00;;;;;;5072546;28;20601;-61
2021/03/26 11:01:15;;;;;;;9.40;6.60;;;19.20;66.90;;;;;;5072941;28;20221;-62
2021/03/26 11:03:45;;;;;;;10.68;7.63;;;19.30;66.00;;;;;;5072977;28;20205;-62
2021/03/26 11:06:27;;;;;;;10.45;6.65;;;19.50;65.50;;;;;;5072914;28;20209;-60
2021/03/26 11:09:02;;;;;;;9.35;5.93;;;19.60;64.70;;;;;;5072633;28;20204;-59
2021/03/26 11:11:40;;;;;;;10.43;6.60;;;19.70;64.20;;;;;;5073163;28;20204;-61
2021/03/26 11:14:46;;;;;;;9.02;6.70;;;19.90;64.10;;;;;;5072481;28;20211;-61
2021/03/26 11:17:20;;;;;;;8.48;5.93;;;19.90;63.40;;;;;;5051281;28;20231;-61
2021/03/26 11:20:11;;;;;;;13.15;6.88;;;19.90;63.40;;;;;;5072040;28;20274;-60
2021/03/26 11:22:41;;;;;;;11.90;7.10;;;19.80;62.60;;;;;;5072469;28;20876;-62
2021/03/26 11:25:20;;;;;;;11.18;6.90;;;19.80;63.00;;;;;;5072233;28;20202;-60
2021/03/26 11:27:49;;;;;;;9.80;6.45;;;19.90;63.00;;;;;;5072134;28;20208;-60
2021/03/26 11:30:35;;;;;;;10.85;6.15;;;20.00;62.50;;;;;;5072141;28;20220;-60
2021/03/26 11:33:12;;;;;;;9.27;5.63;;;20.20;62.30;;;;;;5072689;28;20205;-60
2021/03/26 11:35:41;;;;;;;9.50;5.03;;;20.20;62.00;;;;;;5072595;28;20208;-61
2021/03/26 11:38:15;;;;;;;8.10;5.47;;;20.30;60.70;;;;;;5072252;28;20274;-61
2021/03/26 11:40:46;;;;;;;7.32;4.88;;;20.20;59.40;;;;;;5071982;28;20225;-60
2021/03/26 11:43:18;;;;;;;7.95;4.80;;;20.20;59.00;;;;;;5071550;28;20205;-61
2021/03/26 11:45:47;;;;;;;8.75;5.45;;;20.20;59.30;;;;;;5072074;28;20204;-61
2021/03/26 11:48:21;;;;;;;11.40;6.50;;;20.10;59.50;;;;;;5071831;28;20252;-63
2021/03/26 11:51:08;;;;;;;8.07;5.95;;;20.20;59.10;;;;;;5071648;28;20503;-61
2021/03/26 11:53:39;;;;;;;12.10;6.53;;;20.30;59.80;;;;;;5071849;28;20484;-62
2021/03/26 11:56:23;;;;;;;8.90;6.30;;;20.50;59.40;;;;;;5070450;28;20215;-60
2021/03/26 11:59:10;;;;;;;7.80;5.60;;;20.50;59.20;;;;;;5071809;28;20208;-61
2021/03/26 12:01:49;;;;;;;10.02;6.32;;;20.50;59.70;;;;;;5038685;28;20786;-60
2021/03/26 12:04:21;;;;;;;8.00;5.60;;;20.60;59.00;;;;;;5071578;28;20204;-62
2021/03/26 12:06:57;;;;;;;10.18;5.47;;;20.70;58.90;;;;;;5071419;28;20262;-59
2021/03/26 12:09:31;;;;;;;9.15;6.03;;;20.80;58.60;;;;;;5071419;28;20634;-60
2021/03/26 12:12:22;;;;;;;8.75;5.28;;;20.80;58.00;;;;;;5071287;28;20215;-60
2021/03/26 12:14:55;;;;;;;11.65;6.38;;;20.80;58.20;;;;;;5067543;28;20403;-61
2021/03/26 12:17:35;;;;;;;8.15;5.72;;;20.80;58.10;;;;;;5071282;28;20688;-61
2021/03/26 12:20:10;;;;;;;7.88;5.00;;;20.80;58.40;;;;;;5070969;28;20236;-62
2021/03/26 12:23:02;;;;;;;11.20;5.63;;;20.70;58.90;;;;;;5070969;28;20216;-63
2021/03/26 12:25:35;;;;;;;8.23;5.32;;;20.80;58.60;;;;;;5071002;28;20580;-62
2021/03/26 12:28:17;;;;;;;7.57;5.35;;;20.80;58.60;;;;;;5070608;28;20735;-62
2021/03/26 12:30:49;;;;;;;8.27;4.75;;;20.80;58.50;;;;;;5070820;28;20599;-63
2021/03/26 12:33:24;;;;;;;8.05;4.72;;;20.80;58.30;;;;;;5071094;28;20200;-62
2021/03/26 12:35:54;;;;;;;8.63;4.78;;;21.00;57.30;;;;;;5070949;28;20710;-62
2021/03/26 12:38:26;;;;;;;7.97;4.22;;;21.40;56.40;;;;;;5070870;28;20729;-62
2021/03/26 12:41:13;;;;;;;8.50;4.47;;;21.60;55.40;;;;;;5070892;28;20233;-62
2021/03/26 12:43:51;;;;;;;6.65;3.70;;;21.80;55.40;;;;;;5070391;28;20205;-62
2021/03/26 12:46:22;;;;;;;5.57;3.67;;;21.70;53.40;;;;;;5070860;28;20205;-60
2021/03/26 12:48:57;;;;;;;6.40;4.00;;;21.50;52.10;;;;;;5070664;28;20205;-61
2021/03/26 12:51:28;;;;;;;6.95;3.42;;;21.50;53.00;;;;;;5070769;28;20204;-62
2021/03/26 12:53:59;;;;;;;5.50;3.30;;;21.50;52.60;;;;;;5069958;28;20205;-62
2021/03/26 12:56:33;;;;;;;8.18;3.42;;;21.40;51.20;;;;;;5070761;28;20291;-62
2021/03/26 12:59:18;;;;;;;6.72;3.33;;;21.10;51.30;;;;;;5070630;28;20769;-62
2021/03/26 13:01:49;;;;;;;4.20;3.50;;;21.20;52.20;;;;;;5070824;28;20239;-62
2021/03/26 13:04:26;;;;;;;6.03;3.38;;;21.20;52.00;;;;;;5070501;28;20204;-62
2021/03/26 13:06:58;;;;;;;6.57;4.05;;;21.20;52.20;;;;;;5070725;28;20201;-64
2021/03/26 13:09:31;;;;;;;7.40;4.75;;;21.20;53.10;;;;;;5070485;28;20232;-61
2021/03/26 13:12:01;;;;;;;4.63;3.97;;;21.20;53.90;;;;;;5070987;28;20216;-61
2021/03/26 13:14:32;;;;;;;6.28;4.00;;;21.30;53.60;;;;;;5070336;28;20684;-61
2021/03/26 13:16:59;;;;;;;10.05;3.80;;;21.40;53.20;;;;;;5070705;28;20205;-61
2021/03/26 13:19:32;;;;;;;6.22;3.60;;;21.30;53.70;;;;;;5070550;28;20225;-61
2021/03/26 13:22:21;;;;;;;5.53;3.60;;;21.20;53.50;;;;;;5070545;28;20212;-61
2021/03/26 13:25:08;;;;;;;6.78;4.30;;;21.30;53.30;;;;;;5070452;28;20232;-60
2021/03/26 13:27:42;;;;;;;5.95;4.00;;;21.30;52.80;;;;;;5070727;28;20213;-60
2021/03/26 13:30:23;;;;;;;6.72;3.50;;;21.30;52.50;;;;;;5070618;28;20250;-61